Time;durP1;ratioP1;P1;durP2;ratioP2;P2;SDS_P1;SDS_P2;PMS_P1;PMS_P2;Temp;Humidity;BMP_temperature;BMP_pressure;BME280_temperature;BME280_humidity;BME280_pressure;Samples;Min_cycle;Max_cycle;Signal;HPM_P1;HPM_P2
2023/01/25 00:01:48;733175.00;2.44;1264.82;0.00;0.00;0.62;;;;;4.80;6.00;;;;;;2260231;61;1996;-87
2023/01/25 00:04:17;1075006.00;3.58;1865.78;45365.00;0.15;79.17;;;;;4.80;6.30;;;;;;2260042;61;1434;-88
2023/01/25 00:06:44;876711.00;2.92;1515.25;20620.00;0.07;36.34;;;;;4.80;6.00;;;;;;2260254;61;1269;-89
2023/01/25 00:09:13;958475.00;3.19;1659.06;29215.00;0.10;51.22;;;;;4.60;6.60;;;;;;2260080;61;1629;-89
2023/01/25 00:11:40;905059.00;3.02;1565.01;0.00;0.00;0.62;;;;;4.70;7.20;;;;;;2260160;61;1044;-87
2023/01/25 00:14:07;841968.00;2.81;1454.42;15539.00;0.05;27.54;;;;;4.80;6.60;;;;;;2260216;61;1364;-88
2023/01/25 00:16:34;708721.00;2.36;1222.36;0.00;0.00;0.62;;;;;4.90;5.70;;;;;;2260183;61;1492;-87
2023/01/25 00:19:01;827175.00;2.76;1428.56;20168.00;0.07;35.56;;;;;4.90;5.10;;;;;;2260201;61;933;-86
2023/01/25 00:21:30;684420.00;2.28;1180.23;52394.00;0.17;91.33;;;;;5.00;5.60;;;;;;2260144;61;1027;-88
2023/01/25 00:23:56;799672.00;2.67;1380.55;0.00;0.00;0.62;;;;;4.80;5.50;;;;;;2260121;61;1286;-88
2023/01/25 00:26:24;907543.00;3.03;1569.37;0.00;0.00;0.62;;;;;5.00;5.40;;;;;;2260060;61;1471;-87
2023/01/25 00:28:52;1125020.00;3.75;1955.23;61849.00;0.21;107.67;;;;;5.00;4.40;;;;;;2260156;61;1127;-86
2023/01/25 00:34:43;586534.00;1.96;1010.97;0.00;0.00;0.62;;;;;5.30;4.10;;;;;;2259610;61;1337;-87
2023/01/25 00:37:25;745644.00;2.49;1286.48;0.00;0.00;0.62;;;;;4.90;3.90;;;;;;2260083;61;1596;-88
2023/01/25 00:39:52;723772.00;2.41;1248.49;0.00;0.00;0.62;;;;;4.80;5.20;;;;;;2260063;61;1727;-87
2023/01/25 00:42:20;975523.00;3.25;1689.17;1000.00;0.00;2.35;;;;;4.90;5.70;;;;;;2259988;61;1910;-88
2023/01/25 00:44:48;883851.00;2.95;1527.77;0.00;0.00;0.62;;;;;4.90;5.20;;;;;;2260066;61;1582;-87
2023/01/25 00:47:16;924711.00;3.08;1599.56;24369.00;0.08;42.84;;;;;5.20;4.60;;;;;;2260182;61;1006;-86
2023/01/25 00:49:44;641330.00;2.14;1105.64;14387.00;0.05;25.55;;;;;5.10;4.30;;;;;;2260172;61;926;-89
2023/01/25 00:52:11;654194.00;2.18;1127.89;0.00;0.00;0.62;;;;;5.10;3.90;;;;;;2260075;61;1599;-86
2023/01/25 00:54:40;916147.00;3.05;1584.50;7051.00;0.02;12.84;;;;;5.20;3.60;;;;;;2259925;61;1345;-87
2023/01/25 00:57:08;869502.00;2.90;1502.62;53365.00;0.18;93.01;;;;;5.00;3.70;;;;;;2260178;61;999;-87
2023/01/25 00:59:35;625504.00;2.09;1078.28;31639.00;0.11;55.42;;;;;4.80;4.70;;;;;;2260157;61;1682;-88
2023/01/25 01:02:03;616605.00;2.06;1062.90;36905.00;0.12;64.53;;;;;5.00;5.90;;;;;;2259994;61;2008;-88
2023/01/25 01:04:30;760592.00;2.54;1312.48;26058.00;0.09;45.76;;;;;4.80;5.30;;;;;;2259952;61;1608;-88
2023/01/25 01:07:35;821510.00;2.74;1418.66;0.00;0.00;0.62;;;;;4.80;5.00;;;;;;2260180;61;925;-86
2023/01/25 01:10:39;616416.00;2.05;1062.57;0.00;0.00;0.62;;;;;4.80;5.10;;;;;;2260691;61;962;-88
2023/01/25 01:16:29;388200.00;1.29;669.52;0.00;0.00;0.62;;;;;5.30;2.80;;;;;;2260740;61;661;-87
2023/01/25 01:18:56;523727.00;1.75;902.68;0.00;0.00;0.62;;;;;5.10;3.70;;;;;;2260727;61;1297;-87
2023/01/25 01:21:24;400886.00;1.34;691.33;0.00;0.00;0.62;;;;;5.00;3.30;;;;;;2260788;61;1076;-88
2023/01/25 01:23:50;464006.00;1.55;799.88;0.00;0.00;0.62;;;;;4.90;3.70;;;;;;2260589;61;1925;-88
2023/01/25 01:26:19;503782.00;1.68;868.34;0.00;0.00;0.62;;;;;5.00;4.30;;;;;;2260696;61;1545;-88
2023/01/25 01:28:47;461958.00;1.54;796.35;0.00;0.00;0.62;;;;;4.70;5.00;;;;;;2260754;61;1542;-87
2023/01/25 01:31:15;327506.00;1.09;565.20;0.00;0.00;0.62;;;;;4.70;5.60;;;;;;2260762;61;1666;-88
2023/01/25 01:33:44;343927.00;1.15;593.42;0.00;0.00;0.62;;;;;4.80;5.10;;;;;;2260612;61;1416;-87
2023/01/25 01:36:14;336723.00;1.12;581.04;0.00;0.00;0.62;;;;;4.60;5.00;;;;;;2260729;61;1071;-87
2023/01/25 01:38:41;303619.00;1.01;524.14;0.00;0.00;0.62;;;;;4.70;6.80;;;;;;2260584;61;1007;-88
2023/01/25 01:41:09;287014.00;0.96;495.60;0.00;0.00;0.62;;;;;5.00;5.40;;;;;;2260730;61;1011;-88
2023/01/25 01:43:37;278862.00;0.93;481.58;0.00;0.00;0.62;;;;;5.10;4.20;;;;;;2260689;61;1916;-87
2023/01/25 01:46:09;263852.00;0.88;455.77;0.00;0.00;0.62;;;;;5.10;4.20;;;;;;2260605;61;955;-87
2023/01/25 01:48:41;419378.00;1.40;723.12;0.00;0.00;0.62;;;;;5.00;2.90;;;;;;2260620;61;906;-88
2023/01/25 01:51:17;591153.00;1.97;1018.95;16698.00;0.06;29.55;;;;;5.00;4.00;;;;;;2260556;61;1561;-87
2023/01/25 01:53:48;457832.00;1.53;789.26;0.00;0.00;0.62;;;;;4.70;4.70;;;;;;2260597;61;1270;-88
2023/01/25 01:56:20;403709.00;1.35;696.18;0.00;0.00;0.62;;;;;4.70;6.60;;;;;;2260714;61;1056;-88
2023/01/25 01:58:50;313343.00;1.04;540.86;0.00;0.00;0.62;;;;;4.70;5.70;;;;;;2274281;40;3744;-89
2023/01/25 02:01:19;247389.00;0.82;427.46;0.00;0.00;0.62;;;;;4.60;5.80;;;;;;2260598;61;975;-87
2023/01/25 02:06:26;554574.00;1.85;955.84;0.00;0.00;0.62;;;;;4.70;5.80;;;;;;2262551;61;1397;-88
2023/01/25 02:11:29;768962.00;2.56;1327.05;0.00;0.00;0.62;;;;;4.50;6.40;;;;;;2270535;61;1396;-88
2023/01/25 02:13:59;397041.00;1.32;684.72;0.00;0.00;0.62;;;;;4.40;7.00;;;;;;2266024;61;1418;-89
2023/01/25 02:16:28;370895.00;1.24;639.78;0.00;0.00;0.62;;;;;4.50;7.10;;;;;;2264597;61;1242;-87
2023/01/25 02:19:00;336854.00;1.12;581.27;0.00;0.00;0.62;;;;;4.80;6.50;;;;;;2264581;61;1331;-88
2023/01/25 02:21:38;298539.00;1.00;515.41;0.00;0.00;0.62;;;;;4.70;5.50;;;;;;2264602;61;1778;-88
2023/01/25 02:24:11;653527.00;2.18;1126.74;0.00;0.00;0.62;;;;;4.70;6.00;;;;;;2264510;61;2041;-88
2023/01/25 02:26:40;479876.00;1.60;827.18;0.00;0.00;0.62;;;;;4.80;5.40;;;;;;2264515;61;937;-87
2023/01/25 02:29:09;476753.00;1.59;821.81;0.00;0.00;0.62;;;;;4.70;4.80;;;;;;2264653;61;1050;-88
2023/01/25 02:31:36;331727.00;1.11;572.45;0.00;0.00;0.62;;;;;4.50;6.40;;;;;;2264417;61;1018;-88
2023/01/25 02:34:03;378187.00;1.26;652.31;38029.00;0.13;66.48;;;;;4.50;7.20;;;;;;2264445;61;1565;-88
2023/01/25 02:36:33;353296.00;1.18;609.53;0.00;0.00;0.62;;;;;4.50;6.20;;;;;;2289796;40;3579;-88
2023/01/25 02:39:04;424190.00;1.41;731.39;0.00;0.00;0.62;;;;;4.50;6.80;;;;;;2264540;61;1075;-87
2023/01/25 02:41:34;319707.00;1.07;551.79;0.00;0.00;0.62;;;;;4.40;7.00;;;;;;2264542;61;1091;-87
2023/01/25 02:44:06;368278.00;1.23;635.28;0.00;0.00;0.62;;;;;4.70;7.00;;;;;;2261596;61;1997;-86
2023/01/25 02:46:36;358905.00;1.20;619.17;0.00;0.00;0.62;;;;;5.00;5.50;;;;;;2260483;61;1015;-86
2023/01/25 02:49:04;348359.00;1.16;601.04;0.00;0.00;0.62;;;;;4.90;4.20;;;;;;2260565;61;1012;-88
2023/01/25 02:51:34;348452.00;1.16;601.20;0.00;0.00;0.62;;;;;4.60;5.30;;;;;;2260575;61;996;-87
2023/01/25 02:54:02;478395.00;1.59;824.64;0.00;0.00;0.62;;;;;4.60;5.30;;;;;;2260461;61;1676;-87
2023/01/25 02:56:29;364405.00;1.21;628.62;0.00;0.00;0.62;;;;;5.00;3.90;;;;;;2260553;61;1535;-86
2023/01/25 03:01:34;595671.00;1.99;1026.75;0.00;0.00;0.62;;;;;5.10;2.90;;;;;;2267628;56;1506;-87
2023/01/25 03:04:01;505056.00;1.68;870.53;0.00;0.00;0.62;;;;;4.60;4.90;;;;;;2261605;61;2285;-87
2023/01/25 03:06:28;455816.00;1.52;785.79;0.00;0.00;0.62;;;;;4.50;5.00;;;;;;2260477;61;921;-88
2023/01/25 03:08:55;362239.00;1.21;624.90;0.00;0.00;0.62;;;;;4.40;7.00;;;;;;2260390;61;1040;-87
2023/01/25 03:11:22;493016.00;1.64;849.80;0.00;0.00;0.62;;;;;4.60;6.20;;;;;;2260319;61;1784;-86
2023/01/25 03:13:49;546320.00;1.82;941.62;0.00;0.00;0.62;;;;;4.70;5.30;;;;;;2260376;61;1281;-86
2023/01/25 03:16:16;313084.00;1.04;540.41;0.00;0.00;0.62;;;;;4.60;5.10;;;;;;2260317;61;1682;-88
2023/01/25 03:18:45;242376.00;0.81;418.84;0.00;0.00;0.62;;;;;4.60;5.50;;;;;;2260424;61;1076;-87
2023/01/25 03:21:14;342130.00;1.14;590.33;0.00;0.00;0.62;;;;;4.60;5.70;;;;;;2260295;61;1090;-88
2023/01/25 03:23:41;571331.00;1.90;984.74;0.00;0.00;0.62;;;;;4.50;4.90;;;;;;2260260;61;1912;-87
2023/01/25 03:26:10;354204.00;1.18;611.09;0.00;0.00;0.62;;;;;4.50;5.40;;;;;;2260428;61;1022;-87
2023/01/25 03:28:39;661298.00;2.20;1140.19;0.00;0.00;0.62;;;;;4.50;7.00;;;;;;2260296;61;1592;-88
2023/01/25 03:31:07;569187.00;1.90;981.04;0.00;0.00;0.62;;;;;4.60;5.00;;;;;;2260170;61;1545;-88
2023/01/25 03:33:34;470996.00;1.57;811.90;0.00;0.00;0.62;;;;;4.80;4.50;;;;;;2260223;61;1446;-88
2023/01/25 03:36:04;317900.00;1.06;548.69;0.00;0.00;0.62;;;;;4.60;5.20;;;;;;2260393;61;1682;-86
2023/01/25 03:38:31;245529.00;0.82;424.26;0.00;0.00;0.62;;;;;4.70;4.20;;;;;;2260333;61;903;-87
2023/01/25 03:40:58;372596.00;1.24;642.70;0.00;0.00;0.62;;;;;4.40;5.60;;;;;;2260396;61;885;-88
2023/01/25 03:43:25;481813.00;1.61;830.52;0.00;0.00;0.62;;;;;4.50;6.50;;;;;;2260229;61;2022;-87
2023/01/25 03:45:53;373521.00;1.25;644.29;0.00;0.00;0.62;;;;;4.30;6.50;;;;;;2260209;61;936;-88
2023/01/25 03:48:20;566990.00;1.89;977.26;0.00;0.00;0.62;;;;;4.10;7.70;;;;;;2260376;61;1004;-87
2023/01/25 03:50:50;462393.00;1.54;797.10;0.00;0.00;0.62;;;;;4.10;8.20;;;;;;2260400;61;1060;-88
2023/01/25 03:53:26;385928.00;1.29;665.62;0.00;0.00;0.62;;;;;4.30;7.40;;;;;;2260262;61;1586;-89
2023/01/25 03:55:54;379705.00;1.27;654.92;0.00;0.00;0.62;;;;;4.40;6.70;;;;;;2260279;61;1087;-87
2023/01/25 03:58:21;444283.00;1.48;765.95;0.00;0.00;0.62;;;;;4.30;7.50;;;;;;2260209;61;1737;-88
2023/01/25 04:00:48;441159.00;1.47;760.58;30216.00;0.10;52.96;;;;;4.20;6.90;;;;;;2260191;61;1231;-86
2023/01/25 04:03:16;499579.00;1.67;861.10;0.00;0.00;0.62;;;;;4.60;7.20;;;;;;2260154;61;2022;-87
2023/01/25 04:05:43;290278.00;0.97;501.21;0.00;0.00;0.62;;;;;4.80;5.00;;;;;;2260194;61;1588;-87
2023/01/25 04:08:10;358312.00;1.19;618.15;0.00;0.00;0.62;;;;;4.60;4.50;;;;;;2260361;61;998;-88
2023/01/25 04:10:38;433818.00;1.45;747.95;0.00;0.00;0.62;;;;;4.70;5.10;;;;;;2260231;61;2227;-87
2023/01/25 04:13:05;466713.00;1.56;804.53;0.00;0.00;0.62;;;;;5.00;4.10;;;;;;2260226;61;1364;-86
2023/01/25 04:15:32;608840.00;2.03;1049.49;0.00;0.00;0.62;;;;;4.90;4.00;;;;;;2260083;61;1562;-86
2023/01/25 04:18:00;501406.00;1.67;864.24;0.00;0.00;0.62;;;;;4.80;4.20;;;;;;2260084;61;1710;-88
2023/01/25 04:20:27;456013.00;1.52;786.13;24275.00;0.08;42.67;;;;;5.10;3.50;;;;;;2260251;61;1115;-87
2023/01/25 04:22:54;309020.00;1.03;533.42;0.00;0.00;0.62;;;;;5.20;2.70;;;;;;2260174;61;1994;-86
2023/01/25 04:25:20;344069.00;1.15;593.67;24054.00;0.08;42.29;;;;;5.00;2.40;;;;;;2260175;61;1505;-87
2023/01/25 04:28:27;429157.00;1.43;739.94;0.00;0.00;0.62;;;;;5.10;2.90;;;;;;2260169;61;1068;-87
2023/01/25 04:30:55;264890.00;0.88;457.56;0.00;0.00;0.62;;;;;5.20;1.80;;;;;;2260206;61;1551;-87
2023/01/25 04:33:22;577798.00;1.93;995.90;0.00;0.00;0.62;;;;;5.50;2.10;;;;;;2260033;61;1396;-88
2023/01/25 04:35:49;350068.00;1.17;603.98;0.00;0.00;0.62;;;;;5.40;1.00;;;;;;2260134;61;1708;-87
2023/01/25 04:38:16;208897.00;0.70;361.24;0.00;0.00;0.62;;;;;5.60;1.00;;;;;;2260234;61;1397;-87
2023/01/25 04:40:43;319725.00;1.07;551.83;0.00;0.00;0.62;;;;;5.40;1.00;;;;;;2260125;61;1556;-87
2023/01/25 04:43:12;413586.00;1.38;713.16;0.00;0.00;0.62;;;;;5.00;1.50;;;;;;2259835;61;1934;-88
2023/01/25 04:45:40;608034.00;2.03;1048.09;0.00;0.00;0.62;;;;;5.00;2.20;;;;;;2260120;61;999;-86
2023/01/25 04:48:09;317608.00;1.06;548.19;0.00;0.00;0.62;;;;;4.90;2.90;;;;;;2260219;61;1274;-87
2023/01/25 04:50:37;469461.00;1.56;809.26;0.00;0.00;0.62;;;;;4.90;3.40;;;;;;2260238;61;953;-88
2023/01/25 04:53:04;338029.00;1.13;583.29;0.00;0.00;0.62;;;;;4.90;2.90;;;;;;2259984;61;1385;-87
2023/01/25 04:55:32;267526.00;0.89;462.09;0.00;0.00;0.62;;;;;5.10;2.20;;;;;;2260156;61;968;-86
2023/01/25 04:57:59;323726.00;1.08;558.70;0.00;0.00;0.62;;;;;5.10;2.80;;;;;;2260182;61;1776;-87
2023/01/25 05:00:27;365159.00;1.22;629.92;0.00;0.00;0.62;;;;;5.00;2.60;;;;;;2259897;61;963;-85
2023/01/25 05:02:56;276689.00;0.92;477.84;0.00;0.00;0.62;;;;;4.80;3.70;;;;;;2260025;61;1918;-88
2023/01/25 05:05:23;490100.00;1.63;844.78;0.00;0.00;0.62;;;;;4.80;3.80;;;;;;2260093;61;1046;-88
2023/01/25 05:07:50;390055.00;1.30;672.71;0.00;0.00;0.62;;;;;4.80;4.10;;;;;;2260086;61;1619;-88
2023/01/25 05:10:17;251024.00;0.84;433.71;0.00;0.00;0.62;;;;;4.80;3.70;;;;;;2260106;61;1587;-87
2023/01/25 05:12:44;604005.00;2.01;1041.14;0.00;0.00;0.62;;;;;5.00;3.10;;;;;;2259739;61;1465;-86
2023/01/25 05:15:11;339725.00;1.13;586.20;0.00;0.00;0.62;;;;;5.20;2.20;;;;;;2260084;61;978;-87
2023/01/25 05:17:38;993084.00;3.31;1720.23;0.00;0.00;0.62;;;;;5.40;1.10;;;;;;2260008;61;924;-87
2023/01/25 05:20:07;418896.00;1.40;722.29;0.00;0.00;0.62;;;;;5.60;1.00;;;;;;2259908;61;957;-88
2023/01/25 05:22:34;329601.00;1.10;568.80;0.00;0.00;0.62;;;;;5.50;1.00;;;;;;2260040;61;1342;-87
2023/01/25 05:25:02;446404.00;1.49;769.60;0.00;0.00;0.62;;;;;5.30;1.00;;;;;;2260067;61;2011;-87
2023/01/25 05:27:28;500814.00;1.67;863.23;85615.00;0.29;148.74;;;;;5.40;1.00;;;;;;2260067;61;1286;-86
2023/01/25 05:29:56;340823.00;1.14;588.09;0.00;0.00;0.62;;;;;5.40;1.00;;;;;;2259899;61;1063;-87
2023/01/25 05:32:24;213651.00;0.71;369.42;0.00;0.00;0.62;;;;;5.30;1.00;;;;;;2260056;61;1857;-87
2023/01/25 05:34:51;303511.00;1.01;523.96;0.00;0.00;0.62;;;;;5.20;1.00;;;;;;2260047;61;1411;-87
2023/01/25 05:37:21;256368.00;0.85;442.90;0.00;0.00;0.62;;;;;5.20;1.00;;;;;;2260036;61;1650;-86
2023/01/25 05:39:48;292343.00;0.97;504.76;0.00;0.00;0.62;;;;;5.20;1.20;;;;;;2259999;61;1057;-86
2023/01/25 05:42:18;411753.00;1.37;710.01;29305.00;0.10;51.38;;;;;5.40;1.00;;;;;;2260023;61;1613;-87
2023/01/25 05:44:45;270765.00;0.90;467.66;0.00;0.00;0.62;;;;;5.40;1.00;;;;;;2259959;61;1918;-89
2023/01/25 05:47:13;117599800.00;392.00;65879500.00;0.00;0.00;0.62;;;;;5.70;1.00;;;;;;2259943;61;1733;-86
2023/01/25 05:49:40;227020.00;0.76;392.42;0.00;0.00;0.62;;;;;5.60;1.00;;;;;;2259905;61;1656;-86
2023/01/25 05:52:07;328014.00;1.09;566.07;0.00;0.00;0.62;;;;;5.70;1.00;;;;;;2260022;61;1597;-87
2023/01/25 05:54:35;349678.00;1.17;603.31;0.00;0.00;0.62;;;;;5.70;1.00;;;;;;2260391;61;1392;-89
2023/01/25 05:57:02;358425.00;1.19;618.34;0.00;0.00;0.62;;;;;5.50;1.00;;;;;;2260653;61;1689;-88
2023/01/25 05:59:29;385395.00;1.28;664.70;0.00;0.00;0.62;;;;;5.50;1.00;;;;;;2260526;61;1285;-87
2023/01/25 06:01:56;332467.00;1.11;573.73;0.00;0.00;0.62;;;;;5.40;1.00;;;;;;2260580;61;1023;-87
2023/01/25 06:04:23;470829.00;1.57;811.62;0.00;0.00;0.62;;;;;5.50;1.00;;;;;;2260585;61;1993;-88
2023/01/25 06:06:50;321313.00;1.07;554.55;0.00;0.00;0.62;;;;;5.30;1.00;;;;;;2260450;61;952;-89
2023/01/25 06:09:17;364406.00;1.21;628.62;0.00;0.00;0.62;;;;;5.30;1.00;;;;;;2260599;61;1123;-86
2023/01/25 06:11:45;608511.00;2.03;1048.92;0.00;0.00;0.62;;;;;5.30;1.00;;;;;;2260561;61;1616;-87
2023/01/25 06:14:12;394815.00;1.32;680.89;0.00;0.00;0.62;;;;;5.40;1.00;;;;;;2260485;61;1380;-86
2023/01/25 06:16:39;199936.00;0.67;345.81;0.00;0.00;0.62;;;;;5.60;1.00;;;;;;2260550;61;1153;-87
2023/01/25 06:19:07;207247.00;0.69;358.40;0.00;0.00;0.62;;;;;5.30;1.00;;;;;;2259610;61;1270;-88
2023/01/25 06:21:35;314512.00;1.05;542.87;0.00;0.00;0.62;;;;;5.10;1.00;;;;;;2260591;61;1096;-87
2023/01/25 06:24:02;421230.00;1.40;726.31;0.00;0.00;0.62;;;;;5.00;1.00;;;;;;2260521;61;1920;-88
2023/01/25 06:26:29;360051.00;1.20;621.14;0.00;0.00;0.62;;;;;4.80;2.80;;;;;;2260626;61;1021;-87
2023/01/25 06:28:58;410715.00;1.37;708.23;0.00;0.00;0.62;;;;;4.90;2.20;;;;;;2260524;61;1003;-88
2023/01/25 06:31:25;519581.00;1.73;895.54;0.00;0.00;0.62;;;;;4.70;2.50;;;;;;2260508;61;886;-88
2023/01/25 06:33:52;394587.00;1.32;680.50;0.00;0.00;0.62;;;;;4.60;3.70;;;;;;2260451;61;1272;-88
2023/01/25 06:36:21;518423.00;1.73;893.55;42575.00;0.14;74.34;;;;;5.10;2.20;;;;;;2260558;61;1087;-87
2023/01/25 06:38:49;418592.00;1.40;721.77;0.00;0.00;0.62;;;;;5.30;1.00;;;;;;2260609;61;1092;-88
2023/01/25 06:41:16;433261.00;1.44;746.99;0.00;0.00;0.62;;;;;5.20;1.00;;;;;;2260349;61;1184;-87
2023/01/25 06:43:43;473966.00;1.58;817.01;0.00;0.00;0.62;;;;;5.30;1.00;;;;;;2260326;61;1916;-87
2023/01/25 06:46:12;188639.00;0.63;326.37;0.00;0.00;0.62;;;;;5.80;1.00;;;;;;2260342;61;1103;-87
2023/01/25 06:48:40;510617.00;1.70;880.10;0.00;0.00;0.62;;;;;6.30;1.00;;;;;;2260461;61;1025;-88
2023/01/25 06:51:10;261348.00;0.87;451.47;0.00;0.00;0.62;;;;;6.60;1.00;;;;;;2260555;61;1032;-88
2023/01/25 06:53:39;214702.00;0.72;371.23;0.00;0.00;0.62;;;;;6.90;1.00;;;;;;2260464;61;1226;-87
2023/01/25 06:56:08;420834.00;1.40;725.62;0.00;0.00;0.62;;;;;6.70;1.00;;;;;;2260511;61;1587;-86
2023/01/25 06:58:36;203785.00;0.68;352.44;0.00;0.00;0.62;;;;;6.70;1.00;;;;;;2260522;61;1730;-87
2023/01/25 07:01:05;378248.00;1.26;652.41;0.00;0.00;0.62;;;;;6.30;1.00;;;;;;2260289;61;992;-88
2023/01/25 07:03:34;455251.00;1.52;784.82;0.00;0.00;0.62;;;;;6.20;1.00;;;;;;2260397;61;1915;-88
2023/01/25 07:06:03;152364.00;0.51;263.88;0.00;0.00;0.62;;;;;6.40;1.00;;;;;;2260209;61;1127;-87
2023/01/25 07:08:31;179595.00;0.60;310.79;0.00;0.00;0.62;;;;;6.50;1.00;;;;;;2260423;61;1266;-88
2023/01/25 07:11:00;467084.00;1.56;805.17;0.00;0.00;0.62;;;;;6.80;1.00;;;;;;2260247;61;1134;-89
2023/01/25 07:13:28;275573.00;0.92;475.93;0.00;0.00;0.62;;;;;7.00;1.00;;;;;;2260377;61;1278;-84
2023/01/25 07:15:57;512638.00;1.71;883.59;0.00;0.00;0.62;;;;;6.30;1.00;;;;;;2260283;61;1568;-87
2023/01/25 07:18:25;153540.00;0.51;265.91;0.00;0.00;0.62;;;;;6.20;1.00;;;;;;2260381;61;1056;-86
2023/01/25 07:20:54;591017.00;1.97;1018.71;95308.00;0.32;165.47;;;;;6.20;1.00;;;;;;2260309;61;1513;-87
2023/01/25 07:23:21;507043.00;1.69;873.95;101168.00;0.34;175.59;;;;;6.50;1.00;;;;;;2260295;61;1345;-87
2023/01/25 07:28:20;491742.00;1.64;847.61;99392.00;0.33;172.52;;;;;6.90;1.00;;;;;;2265726;61;1397;-88
2023/01/25 07:30:48;359340.00;1.20;619.91;102496.00;0.34;177.88;;;;;6.90;1.00;;;;;;2264243;61;2301;-88
2023/01/25 07:33:15;159350.00;0.53;275.92;0.00;0.00;0.62;;;;;7.10;1.00;;;;;;2262836;61;1616;-89
2023/01/25 07:35:42;343041.00;1.14;591.90;0.00;0.00;0.62;;;;;7.30;1.00;;;;;;2260398;61;1762;-89
2023/01/25 07:38:10;217568.00;0.73;376.16;0.00;0.00;0.62;;;;;7.30;1.00;;;;;;2260333;61;1606;-88
2023/01/25 07:40:37;149254.00;0.50;258.52;0.00;0.00;0.62;;;;;7.30;1.00;;;;;;2260287;61;1074;-88
2023/01/25 07:43:05;381822.00;1.27;658.56;0.00;0.00;0.62;;;;;7.30;1.00;;;;;;2260193;61;1382;-87
2023/01/25 07:45:34;464387.00;1.55;800.53;0.00;0.00;0.62;;;;;7.30;1.00;;;;;;2260280;61;1911;-89
2023/01/25 07:50:38;452946.00;1.51;780.85;122286.00;0.41;212.03;;;;;7.20;1.00;;;;;;2332651;56;1787;-88
2023/01/25 07:53:05;586503.00;1.96;1010.92;99918.00;0.33;173.43;;;;;7.00;1.00;;;;;;2263049;61;1306;-89
2023/01/25 07:55:34;415889.00;1.39;717.12;105896.00;0.35;183.75;;;;;6.90;1.00;;;;;;2260244;61;1665;-88
2023/01/25 07:58:01;572671.00;1.91;987.05;92536.00;0.31;160.69;;;;;7.20;1.00;;;;;;2286026;56;3808;-90
2023/01/25 08:00:27;611391.00;2.04;1053.89;110974.00;0.37;192.51;;;;;7.30;1.00;;;;;;2264174;61;1554;-89
2023/01/25 08:05:28;1039364.00;3.46;1802.32;104723.00;0.35;181.72;;;;;7.00;1.00;;;;;;2265496;61;1974;-89
2023/01/25 08:07:55;379467.00;1.26;654.51;84979.00;0.28;147.64;;;;;7.10;1.00;;;;;;2264311;61;1106;-88
2023/01/25 08:10:22;604038.00;2.01;1041.19;95757.00;0.32;166.25;;;;;7.20;1.00;;;;;;2264301;61;1540;-89
2023/01/25 08:12:50;230283.00;0.77;398.04;0.00;0.00;0.62;;;;;7.20;1.00;;;;;;2263439;61;1303;-86
2023/01/25 08:15:17;398646.00;1.33;687.48;0.00;0.00;0.62;;;;;7.30;1.00;;;;;;2260112;61;1000;-87
2023/01/25 08:17:44;278929.00;0.93;481.70;0.00;0.00;0.62;;;;;7.50;1.00;;;;;;2263006;55;3733;-88
2023/01/25 08:20:12;160657.00;0.54;278.17;0.00;0.00;0.62;;;;;7.60;1.00;;;;;;2264247;61;1029;-90
2023/01/25 08:22:39;221761.00;0.74;383.37;0.00;0.00;0.62;;;;;7.80;1.00;;;;;;2263829;61;1396;-89
2023/01/25 08:25:07;233667.00;0.78;403.86;0.00;0.00;0.62;;;;;7.80;1.00;;;;;;2260012;61;1908;-87
2023/01/25 08:27:34;340217.00;1.13;587.05;5270.00;0.02;9.75;;;;;7.70;1.00;;;;;;2260152;61;929;-88
2023/01/25 08:30:04;182616.00;0.61;315.99;0.00;0.00;0.62;;;;;7.60;1.00;;;;;;2260139;61;1036;-88
2023/01/25 08:32:31;249971.00;0.83;431.90;0.00;0.00;0.62;;;;;7.50;1.00;;;;;;2260135;61;1425;-88
2023/01/25 08:34:58;445036.00;1.48;767.24;0.00;0.00;0.62;;;;;7.70;1.00;;;;;;2260056;61;938;-90
2023/01/25 08:37:28;192950.00;0.64;333.79;0.00;0.00;0.62;;;;;7.70;1.00;;;;;;2260130;61;1564;-87
2023/01/25 08:39:56;264929.00;0.88;457.62;0.00;0.00;0.62;;;;;7.30;1.00;;;;;;2260207;61;1102;-88
2023/01/25 08:42:23;285366.00;0.95;492.76;0.00;0.00;0.62;;;;;6.90;1.00;;;;;;2260084;61;1801;-86
2023/01/25 08:44:50;265758.00;0.89;459.05;0.00;0.00;0.62;;;;;6.30;1.00;;;;;;2260085;61;1919;-86
2023/01/25 08:47:18;268910.00;0.90;464.47;0.00;0.00;0.62;;;;;6.20;1.00;;;;;;2260231;61;1037;-86
2023/01/25 08:49:45;313326.00;1.04;540.83;0.00;0.00;0.62;;;;;6.30;1.00;;;;;;2260179;61;1081;-88
2023/01/25 08:52:13;450147.00;1.50;776.04;0.00;0.00;0.62;;;;;5.90;1.00;;;;;;2260082;61;1639;-88
2023/01/25 08:54:43;270737.00;0.90;467.61;0.00;0.00;0.62;;;;;5.40;1.00;;;;;;2260073;61;1637;-87
2023/01/25 08:57:10;293317.00;0.98;506.43;0.00;0.00;0.62;;;;;5.50;1.00;;;;;;2260069;61;1627;-86
2023/01/25 08:59:37;334957.00;1.12;578.01;0.00;0.00;0.62;;;;;5.80;1.00;;;;;;2260187;61;1022;-88
2023/01/25 09:02:04;381562.00;1.27;658.11;0.00;0.00;0.62;;;;;5.20;1.00;;;;;;2260007;61;2035;-89
2023/01/25 09:04:32;331791.00;1.11;572.56;0.00;0.00;0.62;;;;;5.00;1.00;;;;;;2260042;61;1999;-87
2023/01/25 09:06:59;336954.00;1.12;581.44;0.00;0.00;0.62;;;;;5.20;1.00;;;;;;2260062;61;999;-86
2023/01/25 09:09:26;313971.00;1.05;541.94;11440.00;0.04;20.44;;;;;5.40;1.00;;;;;;2260116;61;1024;-87
2023/01/25 09:11:53;284649.00;0.95;491.53;0.00;0.00;0.62;;;;;5.30;1.00;;;;;;2260165;61;1561;-88
2023/01/25 09:14:20;231845.00;0.77;400.72;0.00;0.00;0.62;;;;;5.20;1.00;;;;;;2259967;61;1315;-87
2023/01/25 09:19:18;1122530.00;3.74;1950.76;0.00;0.00;0.62;;;;;4.70;1.00;;;;;;2265511;61;1439;-88
2023/01/25 09:21:47;449110.00;1.50;774.25;0.00;0.00;0.62;;;;;4.70;1.00;;;;;;2264050;61;1575;-87
2023/01/25 09:24:14;460124.00;1.53;793.20;0.00;0.00;0.62;;;;;5.00;1.00;;;;;;2260829;61;1687;-87
2023/01/25 09:26:42;299838.00;1.00;517.64;0.00;0.00;0.62;;;;;5.20;1.00;;;;;;2260074;61;1074;-88
2023/01/25 09:29:10;288016.00;0.96;497.32;0.00;0.00;0.62;;;;;5.20;1.00;;;;;;2317862;41;3568;-87
2023/01/25 09:31:42;528746.00;1.76;911.33;46156.00;0.15;80.54;;;;;5.50;1.00;;;;;;2264748;61;1730;-87
2023/01/25 09:34:10;459465.00;1.53;792.06;0.00;0.00;0.62;;;;;5.10;1.00;;;;;;2323788;41;3624;-87
2023/01/25 09:36:36;407467.00;1.36;702.64;0.00;0.00;0.62;;;;;5.00;1.00;;;;;;2307691;41;3616;-87
2023/01/25 09:39:05;413458.00;1.38;712.94;57070.00;0.19;99.41;;;;;4.90;1.00;;;;;;2264821;61;1091;-88
2023/01/25 09:42:01;445528.00;1.49;768.09;0.00;0.00;0.62;;;;;4.90;1.00;;;;;;2264668;61;1596;-86
2023/01/25 09:44:48;547723.00;1.83;944.03;102049.00;0.34;177.11;;;;;5.40;1.00;;;;;;2256340;61;1999;-87
2023/01/25 09:47:26;680857.00;2.27;1174.06;85592.00;0.29;148.70;;;;;5.90;1.00;;;;;;2260742;61;1045;-87
2023/01/25 09:50:11;780853.00;2.60;1347.75;97638.00;0.33;169.49;;;;;6.00;1.00;;;;;;2267513;41;3629;-88
2023/01/25 09:53:14;1018371.00;3.39;1765.04;106919.00;0.36;185.51;;;;;5.50;1.00;;;;;;2264189;61;1775;-87
2023/01/25 09:55:44;1418623.00;4.73;2490.91;61809.00;0.21;107.60;;;;;5.30;1.00;;;;;;2258513;61;1410;-89
2023/01/25 09:58:19;1155006.00;3.85;2009.08;68044.00;0.23;118.38;;;;;5.60;1.00;;;;;;2260696;61;1075;-87
2023/01/25 10:00:49;1223416.00;4.08;2132.61;96855.00;0.32;168.14;;;;;5.70;1.00;;;;;;2260690;61;1480;-88
2023/01/25 10:03:24;1371041.00;4.57;2402.72;100053.00;0.33;173.66;;;;;5.20;1.00;;;;;;2260636;61;1376;-89
2023/01/25 10:05:54;768377.00;2.56;1326.03;92921.00;0.31;161.35;;;;;4.90;1.00;;;;;;2260515;61;1935;-87
2023/01/25 10:08:28;901886.00;3.01;1559.43;103756.00;0.35;180.05;;;;;4.80;1.00;;;;;;2260618;61;1721;-87
2023/01/25 10:11:04;793012.00;2.64;1368.94;141597.00;0.47;245.32;;;;;4.90;1.00;;;;;;2260676;61;1739;-86
2023/01/25 10:13:31;708704.00;2.36;1222.34;91179.00;0.30;158.34;;;;;5.20;1.00;;;;;;2260573;61;1458;-88
2023/01/25 10:16:04;742415.00;2.47;1280.87;85585.00;0.29;148.68;;;;;5.40;1.00;;;;;;2260539;61;1099;-89
2023/01/25 10:21:06;1134810.00;3.78;1972.79;78636.00;0.26;136.68;;;;;4.90;1.00;;;;;;2266297;61;1425;-87
2023/01/25 10:24:21;267208.00;0.89;461.54;0.00;0.00;0.62;;;;;5.40;1.00;;;;;;2262646;61;1372;-89
2023/01/25 10:26:56;938962.00;3.13;1624.66;41005.00;0.14;71.63;;;;;5.70;1.00;;;;;;2260493;61;1995;-88
2023/01/25 10:29:28;554903.00;1.85;956.41;104843.00;0.35;181.93;;;;;5.70;1.00;;;;;;2268259;55;3800;-87
2023/01/25 10:32:00;571397.00;1.90;984.86;107327.00;0.36;186.22;;;;;5.20;1.00;;;;;;2264501;61;1606;-87
2023/01/25 10:34:32;476306.00;1.59;821.04;0.00;0.00;0.62;;;;;5.10;1.00;;;;;;2260982;61;1484;-87